Time;durP1;ratioP1;P1;durP2;ratioP2;P2;SDS_P1;SDS_P2;PMS_P1;PMS_P2;Temp;Humidity;BMP_temperature;BMP_pressure;BME280_temperature;BME280_humidity;BME280_pressure;Samples;Min_cycle;Max_cycle;Signal;HPM_P1;HPM_P2
2021/05/12 00:01:18;;;;;;;12.55;2.67;;;;;;;10.05;69.52;99928.66;5051046;28;20106;-49
2021/05/12 00:03:45;;;;;;;6.57;1.73;;;;;;;10.00;69.74;99934.50;5049974;28;20103;-45
2021/05/12 00:06:12;;;;;;;15.05;2.63;;;;;;;9.94;69.61;99938.69;5048690;28;20068;-45
2021/05/12 00:08:39;;;;;;;12.05;2.35;;;;;;;9.87;69.89;99940.50;5048596;28;20041;-49
2021/05/12 00:11:06;;;;;;;9.02;2.97;;;;;;;9.83;69.87;99932.09;5049208;28;20049;-45
2021/05/12 00:13:32;;;;;;;11.10;3.42;;;;;;;9.77;70.04;99937.09;5031630;28;20044;-51
2021/05/12 00:15:59;;;;;;;10.50;2.42;;;;;;;9.74;70.24;99939.81;5052993;28;20098;-50
2021/05/12 00:18:33;;;;;;;12.38;2.67;;;;;;;9.69;70.10;99945.59;5049450;28;20124;-48
2021/05/12 00:21:00;;;;;;;12.40;3.10;;;;;;;9.61;70.27;99935.56;5050006;28;20088;-48
2021/05/12 00:23:38;;;;;;;11.20;2.97;;;;;;;9.63;69.94;99938.75;5050675;28;20561;-49
2021/05/12 00:26:05;;;;;;;15.77;3.17;;;;;;;9.52;70.25;99937.69;5050500;28;20037;-44
2021/05/12 00:28:32;;;;;;;10.02;3.92;;;;;;;9.51;70.11;99933.31;5050449;28;20131;-47
2021/05/12 00:30:59;;;;;;;13.35;3.17;;;;;;;9.49;70.07;99936.44;5051208;28;20045;-46
2021/05/12 00:33:25;;;;;;;6.80;2.80;;;;;;;9.43;69.94;99940.63;5048349;28;20145;-47
2021/05/12 00:35:52;;;;;;;8.50;2.47;;;;;;;9.44;70.06;99927.63;5050018;28;20091;-45
2021/05/12 00:38:19;;;;;;;13.85;4.43;;;;;;;9.50;69.66;99928.97;5050944;28;20044;-50
2021/05/12 00:40:46;;;;;;;13.95;2.90;;;;;;;9.43;69.63;99928.75;5048548;28;20041;-48
2021/05/12 00:43:13;;;;;;;8.60;2.97;;;;;;;9.37;69.86;99931.00;5050251;28;20498;-45
2021/05/12 00:45:40;;;;;;;12.00;2.78;;;;;;;9.41;69.85;99925.56;5032974;28;20075;-51
2021/05/12 00:48:07;;;;;;;8.80;2.70;;;;;;;9.35;69.95;99932.50;5061508;28;20087;-47
2021/05/12 00:50:34;;;;;;;9.68;3.38;;;;;;;9.30;70.24;99932.78;5052023;28;20565;-49
2021/05/12 00:53:01;;;;;;;9.00;3.28;;;;;;;9.22;70.03;99931.00;5054472;28;20045;-45
2021/05/12 00:55:28;;;;;;;13.95;3.15;;;;;;;9.32;70.12;99922.19;5053962;28;20033;-47
2021/05/12 00:57:54;;;;;;;6.35;3.35;;;;;;;9.27;69.98;99919.69;5053429;28;20081;-49
2021/05/12 01:00:24;;;;;;;9.68;3.58;;;;;;;9.18;69.99;99923.44;5052820;28;20041;-45
2021/05/12 01:02:52;;;;;;;13.10;3.10;;;;;;;9.14;70.23;99918.97;5052975;28;20406;-49
2021/05/12 01:05:50;;;;;;;5.70;2.65;;;;;;;9.07;70.53;99929.84;5039261;28;20048;-49
2021/05/12 01:08:18;;;;;;;8.80;2.80;;;;;;;9.03;70.41;99913.16;5043811;28;20525;-47
2021/05/12 01:10:46;;;;;;;10.02;3.30;;;;;;;8.99;70.48;99912.28;5053467;28;20095;-46
2021/05/12 01:13:13;;;;;;;8.02;2.40;;;;;;;8.94;70.56;99912.56;5053362;28;20037;-46
2021/05/12 01:15:45;;;;;;;9.73;2.80;;;;;;;8.90;70.83;99905.31;5050753;28;20052;-45
2021/05/12 01:18:11;;;;;;;7.78;2.50;;;;;;;8.87;70.84;99909.59;5052461;28;20471;-47
2021/05/12 01:21:00;;;;;;;11.80;4.28;;;;;;;8.88;70.59;99913.97;5054310;28;20474;-49
2021/05/12 01:23:30;;;;;;;11.25;2.80;;;;;;;8.88;70.42;99913.97;5054797;28;20045;-48
2021/05/12 01:26:00;;;;;;;11.07;3.05;;;;;;;8.86;70.46;99916.28;5054003;28;21877;-45
2021/05/12 01:28:30;;;;;;;7.28;2.53;;;;;;;8.79;70.75;99910.53;5053123;28;20103;-46
2021/05/12 01:31:42;;;;;;;10.43;2.40;;;;;;;8.77;70.71;99907.34;5053579;28;20501;-49
2021/05/12 01:34:15;;;;;;;9.20;2.33;;;;;;;8.72;70.84;99902.09;4948460;28;20051;-45
2021/05/12 01:36:43;;;;;;;7.80;2.63;;;;;;;8.68;70.73;99912.25;5044442;28;20056;-45
2021/05/12 01:39:10;;;;;;;5.15;2.40;;;;;;;8.62;70.58;99907.31;5022294;28;20169;-48
2021/05/12 01:41:37;;;;;;;5.70;2.58;;;;;;;8.57;71.09;99913.91;5039834;28;20041;-45
2021/05/12 01:44:08;;;;;;;11.63;3.00;;;;;;;8.57;71.06;99913.91;5053618;28;20049;-46
2021/05/12 01:46:36;;;;;;;7.75;2.58;;;;;;;8.60;70.90;99904.13;5036325;28;20119;-45
2021/05/12 01:49:06;;;;;;;11.55;2.97;;;;;;;8.64;70.30;99910.53;5048072;28;20060;-49
2021/05/12 01:51:34;;;;;;;9.20;2.92;;;;;;;8.60;70.72;99906.88;5053008;28;20084;-51
2021/05/12 01:54:04;;;;;;;7.18;3.03;;;;;;;8.56;70.46;99909.53;5052864;28;20037;-44
2021/05/12 01:56:30;;;;;;;7.15;3.10;;;;;;;8.57;70.56;99909.19;5051954;28;20049;-49
2021/05/12 01:58:57;;;;;;;10.25;2.80;;;;;;;8.57;70.63;99908.38;5048319;28;20159;-47
2021/05/12 02:01:24;;;;;;;9.45;2.28;;;;;;;8.52;70.52;99914.16;5048162;28;20141;-48
2021/05/12 02:03:51;;;;;;;9.48;3.08;;;;;;;8.43;70.97;99913.50;5050442;28;20114;-48
2021/05/12 02:06:23;;;;;;;7.43;2.75;;;;;;;8.41;70.89;99915.81;5051258;28;20458;-46
2021/05/12 02:08:52;;;;;;;8.80;2.50;;;;;;;8.40;70.78;99915.00;5051197;28;20083;-47
2021/05/12 02:11:22;;;;;;;15.48;3.60;;;;;;;8.36;70.79;99913.31;5051369;28;20519;-45
2021/05/12 02:13:49;;;;;;;11.23;2.80;;;;;;;8.37;70.90;99909.38;5053519;28;20069;-49
2021/05/12 02:16:16;;;;;;;6.43;2.75;;;;;;;8.31;70.82;99910.78;5053362;28;20061;-47
2021/05/12 02:18:43;;;;;;;8.70;2.40;;;;;;;8.25;71.04;99903.88;5052613;28;20453;-45
2021/05/12 02:21:09;;;;;;;5.05;2.47;;;;;;;8.24;70.92;99907.78;5052846;28;20046;-47
2021/05/12 02:23:36;;;;;;;7.90;2.53;;;;;;;8.23;71.23;99911.72;5053223;28;20075;-45
2021/05/12 02:26:03;;;;;;;8.48;2.40;;;;;;;8.20;71.01;99907.69;5052270;28;20045;-47
2021/05/12 02:28:30;;;;;;;6.97;2.22;;;;;;;8.19;71.13;99897.81;5051896;28;20509;-49
2021/05/12 02:30:57;;;;;;;7.72;2.15;;;;;;;8.15;71.04;99901.63;5052921;28;20080;-46
2021/05/12 02:33:23;;;;;;;10.48;2.45;;;;;;;8.10;71.18;99910.13;5053108;28;20118;-45
2021/05/12 02:35:51;;;;;;;12.48;3.95;;;;;;;8.08;71.20;99909.66;5052501;28;20045;-47
2021/05/12 02:38:18;;;;;;;9.73;2.38;;;;;;;8.06;71.17;99903.69;5052767;28;20414;-47
2021/05/12 02:40:45;;;;;;;10.63;3.20;;;;;;;8.02;71.56;99900.06;5052166;28;20728;-45
2021/05/12 02:43:12;;;;;;;10.38;2.95;;;;;;;8.04;71.23;99908.78;5051984;28;20493;-45
2021/05/12 02:45:39;;;;;;;9.80;2.92;;;;;;;8.04;71.17;99904.06;5052672;28;20091;-47
2021/05/12 02:48:06;;;;;;;7.13;2.60;;;;;;;8.04;71.17;99911.53;5052440;28;20080;-49
2021/05/12 02:50:38;;;;;;;10.40;2.83;;;;;;;7.98;71.46;99903.50;5053514;28;20052;-46
2021/05/12 02:53:07;;;;;;;7.75;2.53;;;;;;;7.98;71.48;99903.50;5052405;28;20041;-46
2021/05/12 02:55:35;;;;;;;9.18;2.53;;;;;;;7.98;71.32;99900.75;5051058;28;20051;-46
2021/05/12 02:58:06;;;;;;;7.93;2.20;;;;;;;7.94;71.40;99897.06;5052045;28;20571;-45
2021/05/12 03:00:36;;;;;;;8.23;3.35;;;;;;;7.97;71.30;99896.38;5051995;28;20053;-46
2021/05/12 03:03:03;;;;;;;6.55;2.33;;;;;;;7.92;71.38;99901.31;5051788;28;20071;-47
2021/05/12 03:05:31;;;;;;;6.45;2.40;;;;;;;7.86;71.32;99892.47;5044389;28;20111;-45
2021/05/12 03:07:59;;;;;;;13.02;2.47;;;;;;;7.85;71.50;99887.34;5051777;28;20461;-46
2021/05/12 03:10:34;;;;;;;6.80;2.40;;;;;;;7.82;71.77;99891.59;5051039;28;20044;-45
2021/05/12 03:13:03;;;;;;;7.47;1.95;;;;;;;7.79;71.71;99891.47;5033397;28;20072;-48
2021/05/12 03:15:32;;;;;;;9.63;2.97;;;;;;;7.75;71.74;99882.31;5051358;28;20057;-45
2021/05/12 03:18:01;;;;;;;7.10;2.50;;;;;;;7.73;71.52;99896.41;5051788;28;20041;-47
2021/05/12 03:20:29;;;;;;;7.43;2.33;;;;;;;7.69;71.83;99887.25;5033944;28;20087;-47
2021/05/12 03:23:00;;;;;;;7.15;3.40;;;;;;;7.67;71.82;99892.31;5051186;28;20827;-45
2021/05/12 03:25:28;;;;;;;7.88;2.80;;;;;;;7.67;71.55;99886.81;5051671;28;20128;-45
2021/05/12 03:27:56;;;;;;;5.13;2.40;;;;;;;7.67;71.24;99886.00;5051758;28;20073;-46
2021/05/12 03:30:32;;;;;;;7.43;2.58;;;;;;;7.68;71.50;99888.38;5051364;28;20390;-47
2021/05/12 03:33:00;;;;;;;8.88;1.92;;;;;;;7.67;71.50;99886.81;5033879;28;20041;-45
2021/05/12 03:35:27;;;;;;;7.57;2.35;;;;;;;7.61;71.61;99899.19;5033221;28;20044;-46
2021/05/12 03:37:56;;;;;;;8.07;1.80;;;;;;;7.62;71.66;99889.00;5036334;28;20076;-44
2021/05/12 03:40:24;;;;;;;7.82;2.85;;;;;;;7.63;71.37;99885.88;5052307;28;20401;-44
2021/05/12 03:42:51;;;;;;;6.28;2.40;;;;;;;7.61;71.47;99881.88;5050904;28;20055;-50
2021/05/12 03:45:18;;;;;;;9.07;2.88;;;;;;;7.60;71.36;99886.56;5051140;28;20072;-44
2021/05/12 03:47:47;;;;;;;8.77;1.88;;;;;;;7.59;71.39;99884.97;5051498;28;20061;-45
2021/05/12 03:50:15;;;;;;;8.90;2.67;;;;;;;7.56;71.52;99879.34;5050757;28;20110;-45
2021/05/12 03:52:46;;;;;;;9.40;2.90;;;;;;;7.51;71.71;99883.16;5054686;28;20045;-49
2021/05/12 03:55:14;;;;;;;8.00;3.55;;;;;;;7.47;71.75;99879.47;5049537;28;20045;-46
2021/05/12 03:57:42;;;;;;;9.00;2.33;;;;;;;7.49;72.13;99885.44;5050831;28;20045;-46
2021/05/12 04:00:13;;;;;;;6.00;2.30;;;;;;;7.54;71.99;99893.47;5051230;28;20052;-51
2021/05/12 04:02:42;;;;;;;4.95;2.35;;;;;;;7.51;71.90;99890.59;5049370;28;20140;-49
2021/05/12 04:05:11;;;;;;;7.15;2.22;;;;;;;7.56;71.78;99891.16;5051031;28;20124;-44
2021/05/12 04:07:38;;;;;;;7.35;2.78;;;;;;;7.56;71.71;99896.69;5050701;28;20783;-47
2021/05/12 04:10:07;;;;;;;13.23;3.83;;;;;;;7.60;71.49;99891.28;5050744;28;20124;-48
2021/05/12 04:12:34;;;;;;;7.97;2.67;;;;;;;7.55;71.83;99889.56;5051065;28;20510;-45
2021/05/12 04:15:02;;;;;;;7.88;2.20;;;;;;;7.51;71.80;99885.91;5028873;28;20503;-46
2021/05/12 04:17:29;;;;;;;9.43;2.80;;;;;;;7.46;72.28;99885.31;5031107;28;20049;-46
2021/05/12 04:19:56;;;;;;;6.00;2.88;;;;;;;7.44;72.28;99888.41;5030891;28;20068;-46
2021/05/12 04:22:26;;;;;;;8.07;3.22;;;;;;;7.42;72.17;99887.97;5032553;28;20714;-47
2021/05/12 04:24:53;;;;;;;4.15;2.53;;;;;;;7.40;72.59;99887.50;5034419;28;20446;-46
2021/05/12 04:27:20;;;;;;;5.15;2.65;;;;;;;7.40;72.57;99898.53;5034982;28;20186;-44
2021/05/12 04:29:48;;;;;;;5.30;2.33;;;;;;;7.36;72.95;99889.31;5034737;28;20045;-47
2021/05/12 04:32:15;;;;;;;5.47;2.60;;;;;;;7.42;72.69;99895.41;5034850;28;20754;-50
2021/05/12 04:34:42;;;;;;;8.75;2.95;;;;;;;7.41;72.96;99900.13;5034410;28;20076;-46
2021/05/12 04:37:08;;;;;;;5.20;2.47;;;;;;;7.44;72.81;99891.16;5035071;28;20045;-45
2021/05/12 04:39:35;;;;;;;6.95;3.10;;;;;;;7.46;72.58;99899.09;5035174;28;20441;-46
2021/05/12 04:42:02;;;;;;;6.07;2.63;;;;;;;7.41;72.78;99900.13;5025300;28;20132;-47
2021/05/12 04:44:29;;;;;;;9.32;3.17;;;;;;;7.41;72.73;99899.34;5034231;28;20061;-47
2021/05/12 04:46:57;;;;;;;7.43;2.63;;;;;;;7.42;72.92;99890.72;5046142;28;20045;-45
2021/05/12 04:49:25;;;;;;;9.35;2.47;;;;;;;7.40;72.91;99894.97;5054491;28;20076;-46
2021/05/12 04:51:52;;;;;;;14.73;3.28;;;;;;;7.43;72.89;99897.84;5034844;28;20084;-48
2021/05/12 04:54:19;;;;;;;11.65;3.17;;;;;;;7.47;72.96;99895.97;5034138;28;20491;-48
2021/05/12 04:56:45;;;;;;;3.85;2.88;;;;;;;7.56;72.38;99896.69;5034428;28;20048;-45
2021/05/12 04:59:13;;;;;;;9.70;3.22;;;;;;;7.58;72.32;99899.88;5034043;28;20107;-48
2021/05/12 05:01:43;;;;;;;7.00;2.55;;;;;;;7.55;72.50;99906.09;5032898;28;20045;-48
2021/05/12 05:04:12;;;;;;;5.38;2.90;;;;;;;7.61;72.72;99904.72;5043522;28;20099;-46
2021/05/12 05:06:39;;;;;;;4.72;2.65;;;;;;;7.64;72.39;99912.28;5033255;28;20617;-47
2021/05/12 05:09:06;;;;;;;9.30;3.53;;;;;;;7.68;73.02;99910.44;5034341;28;20049;-47
2021/05/12 05:11:33;;;;;;;8.02;2.33;;;;;;;7.69;72.64;99917.56;5034060;28;20123;-44
2021/05/12 05:14:00;;;;;;;10.07;2.55;;;;;;;7.76;72.80;99917.78;5033176;28;20053;-45
2021/05/12 05:16:27;;;;;;;7.47;2.55;;;;;;;7.78;72.89;99920.19;5050218;28;20075;-45
2021/05/12 05:18:55;;;;;;;5.03;2.45;;;;;;;7.82;72.94;99921.09;5054304;28;20486;-47
2021/05/12 05:21:22;;;;;;;8.88;2.63;;;;;;;7.87;73.01;99924.41;5054151;28;20076;-47
2021/05/12 05:23:49;;;;;;;7.22;2.33;;;;;;;7.87;73.06;99918.91;5053841;28;20106;-49
2021/05/12 05:26:16;;;;;;;8.68;2.45;;;;;;;7.88;73.17;99920.53;5036056;28;20094;-45
2021/05/12 05:28:42;;;;;;;6.03;2.70;;;;;;;7.92;73.21;99909.59;5053344;28;20068;-46
2021/05/12 05:31:09;;;;;;;4.70;2.50;;;;;;;7.97;73.37;99923.13;5053482;28;20045;-45
2021/05/12 05:33:38;;;;;;;7.93;2.05;;;;;;;8.03;73.39;99920.94;5053536;28;20139;-46
2021/05/12 05:36:05;;;;;;;4.38;1.92;;;;;;;8.05;73.74;99915.91;5053453;28;20053;-46
2021/05/12 05:38:32;;;;;;;5.95;1.88;;;;;;;8.08;73.56;99918.75;5045135;28;20040;-47
2021/05/12 05:40:59;;;;;;;3.72;1.23;;;;;;;8.13;73.48;99915.72;5053299;28;20182;-49
2021/05/12 05:43:33;;;;;;;2.67;1.17;;;;;;;8.15;73.42;99924.47;5054033;28;20041;-47
2021/05/12 05:46:00;;;;;;;2.35;1.10;;;;;;;8.15;73.60;99918.16;5053094;28;20119;-46
2021/05/12 05:48:27;;;;;;;2.67;0.80;;;;;;;8.17;73.36;99922.19;5053927;28;20087;-47
2021/05/12 05:50:55;;;;;;;7.70;2.05;;;;;;;8.20;73.60;99929.75;5052407;28;20045;-47
2021/05/12 05:53:22;;;;;;;7.47;2.03;;;;;;;8.24;73.32;99916.06;5053665;28;20082;-44
2021/05/12 05:55:49;;;;;;;3.88;0.90;;;;;;;8.23;73.92;99915.28;5052209;28;20077;-48
2021/05/12 05:58:18;;;;;;;4.32;1.00;;;;;;;8.23;74.01;99925.50;5053663;28;20086;-46
2021/05/12 06:00:46;;;;;;;3.60;0.90;;;;;;;8.28;74.03;99928.03;5051977;28;20136;-47
2021/05/12 06:03:13;;;;;;;4.60;0.70;;;;;;;8.34;74.15;99921.13;5035228;28;20149;-47
2021/05/12 06:05:46;;;;;;;2.75;0.60;;;;;;;8.37;74.12;99925.91;5052311;28;20453;-47
2021/05/12 06:08:13;;;;;;;5.88;1.08;;;;;;;8.41;74.16;99935.91;5053256;28;20041;-46
2021/05/12 06:10:40;;;;;;;1.40;0.82;;;;;;;8.44;73.93;99926.13;5052543;28;20044;-49
2021/05/12 06:13:07;;;;;;;8.35;1.00;;;;;;;8.47;74.07;99942.78;5045671;28;20069;-45
2021/05/12 06:15:33;;;;;;;3.30;1.10;;;;;;;8.52;74.39;99950.00;5052210;28;20080;-47
2021/05/12 06:18:01;;;;;;;6.00;1.13;;;;;;;8.56;74.53;99942.63;5052481;28;20056;-47
2021/05/12 06:20:28;;;;;;;7.97;0.90;;;;;;;8.63;74.39;99931.78;5052794;28;20037;-48
2021/05/12 06:23:05;;;;;;;4.10;1.90;;;;;;;8.76;74.73;99944.41;5025132;28;20491;-45
2021/05/12 06:25:52;;;;;;;3.72;1.60;;;;;;;8.88;74.14;99949.84;5042696;28;20087;-46
2021/05/12 06:28:20;;;;;;;4.05;1.02;;;;;;;9.02;74.25;99954.94;5057866;28;20071;-50
2021/05/12 06:30:50;;;;;;;5.75;1.92;;;;;;;9.11;74.40;99956.38;5070684;28;20064;-46
2021/05/12 06:33:18;;;;;;;4.82;1.25;;;;;;;9.14;74.33;99950.16;5053187;28;20072;-49
2021/05/12 06:35:46;;;;;;;8.18;1.80;;;;;;;9.18;74.28;99959.34;5052890;28;20547;-46
2021/05/12 06:38:13;;;;;;;5.35;2.10;;;;;;;9.24;74.14;99950.78;5052403;28;20525;-49
2021/05/12 06:40:40;;;;;;;3.95;1.52;;;;;;;9.30;74.03;99946.59;5052060;28;20041;-46
2021/05/12 06:43:06;;;;;;;8.23;1.50;;;;;;;9.35;74.03;99954.59;5051113;28;20124;-46
2021/05/12 06:45:34;;;;;;;5.07;2.00;;;;;;;9.38;74.15;99954.69;5052005;28;20052;-47
2021/05/12 06:48:05;;;;;;;2.28;0.98;;;;;;;9.36;73.56;99959.78;5052728;28;20048;-46
2021/05/12 06:50:32;;;;;;;3.63;1.08;;;;;;;9.39;73.88;99961.84;5052829;28;20072;-48
2021/05/12 06:52:59;;;;;;;2.33;0.60;;;;;;;9.47;73.75;99962.81;5072299;28;20044;-48
2021/05/12 06:55:26;;;;;;;8.13;2.25;;;;;;;9.58;73.39;99966.66;5057352;28;20487;-45
2021/05/12 06:57:53;;;;;;;3.88;0.70;;;;;;;9.68;73.30;99957.81;5051890;28;20076;-46
2021/05/12 07:00:20;;;;;;;1.05;0.60;;;;;;;9.75;73.26;99966.28;5034343;28;20075;-48
2021/05/12 07:02:51;;;;;;;6.45;0.85;;;;;;;9.78;73.11;99963.59;5026408;28;20076;-53
2021/05/12 07:05:20;;;;;;;2.55;0.50;;;;;;;9.79;72.90;99953.34;5038251;28;20044;-54
2021/05/12 07:07:47;;;;;;;3.05;0.73;;;;;;;9.78;72.77;99962.78;5033862;28;20429;-48
2021/05/12 07:10:15;;;;;;;1.42;0.50;;;;;;;9.78;72.83;99958.06;5040641;28;20075;-47
2021/05/12 07:12:42;;;;;;;7.90;0.90;;;;;;;9.82;72.90;99963.69;5048646;28;20092;-51
2021/05/12 07:15:11;;;;;;;4.15;0.70;;;;;;;9.90;72.82;99964.66;5049024;28;20514;-47
2021/05/12 07:17:40;;;;;;;7.80;1.67;;;;;;;9.93;72.71;99963.94;5050899;28;20052;-51
2021/05/12 07:20:08;;;;;;;3.05;1.08;;;;;;;10.00;72.53;99964.91;5049607;28;20508;-48
2021/05/12 07:22:35;;;;;;;3.60;0.75;;;;;;;10.05;72.40;99963.81;5024452;28;20143;-45
2021/05/12 07:25:02;;;;;;;1.52;0.50;;;;;;;10.06;72.11;99960.69;5046343;28;20049;-47
2021/05/12 07:27:29;;;;;;;2.75;0.52;;;;;;;10.12;71.92;99969.50;5047568;28;20037;-47
2021/05/12 07:29:59;;;;;;;4.50;0.57;;;;;;;10.16;71.99;99965.69;5048667;28;20052;-45
2021/05/12 07:32:26;;;;;;;4.40;0.50;;;;;;;10.27;71.91;99968.72;5048343;28;20079;-45
2021/05/12 07:34:55;;;;;;;4.88;0.70;;;;;;;10.33;71.45;99968.03;5048680;28;20063;-48
2021/05/12 07:37:23;;;;;;;2.70;0.50;;;;;;;10.39;71.41;99966.59;5055323;28;20091;-48
2021/05/12 07:39:52;;;;;;;1.75;1.15;;;;;;;10.41;71.13;99974.53;5048036;28;20528;-48
2021/05/12 07:42:20;;;;;;;5.78;0.73;;;;;;;10.46;71.21;99971.47;5046273;28;20037;-50
2021/05/12 07:44:50;;;;;;;3.00;0.65;;;;;;;10.58;71.21;99967.78;5021856;28;20414;-48
2021/05/12 07:47:20;;;;;;;8.45;1.30;;;;;;;10.67;71.28;99971.13;5048871;28;20072;-46
2021/05/12 07:49:48;;;;;;;4.80;0.80;;;;;;;10.78;71.30;99966.59;5030625;28;20040;-47
2021/05/12 07:52:15;;;;;;;5.18;0.80;;;;;;;10.90;71.52;99969.22;5048117;28;20048;-47
2021/05/12 07:54:43;;;;;;;4.68;0.88;;;;;;;11.07;71.75;99963.19;5049359;28;20047;-46
2021/05/12 07:57:11;;;;;;;3.70;0.80;;;;;;;11.23;71.18;99971.41;5048685;28;20588;-47
2021/05/12 07:59:38;;;;;;;7.40;1.00;;;;;;;11.31;70.80;99975.91;5037996;28;20069;-47
2021/05/12 08:02:08;;;;;;;6.40;1.25;;;;;;;11.38;70.60;99979.63;5025038;28;20068;-48
2021/05/12 08:04:35;;;;;;;2.70;0.70;;;;;;;11.48;70.18;99979.00;5047421;28;20108;-46
2021/05/12 08:07:03;;;;;;;2.97;0.77;;;;;;;11.68;70.18;99976.16;5048998;28;20051;-48
2021/05/12 08:09:32;;;;;;;4.93;0.88;;;;;;;11.85;69.94;99984.81;5049644;28;20083;-50
2021/05/12 08:12:00;;;;;;;9.73;0.82;;;;;;;11.96;69.25;99983.00;5051011;28;20055;-50
2021/05/12 08:14:27;;;;;;;7.47;0.60;;;;;;;12.07;68.96;99980.41;5048566;28;20560;-47
2021/05/12 08:16:54;;;;;;;2.30;0.55;;;;;;;12.16;68.56;99983.69;5048767;28;20490;-48
2021/05/12 08:19:23;;;;;;;4.70;0.40;;;;;;;12.31;67.99;99991.03;5049237;28;20435;-48
2021/05/12 08:21:50;;;;;;;3.15;0.80;;;;;;;12.39;67.58;99989.19;5046273;28;20044;-46
2021/05/12 08:24:17;;;;;;;2.72;0.60;;;;;;;12.45;67.18;99979.31;5047339;28;20064;-46
2021/05/12 08:26:44;;;;;;;1.45;0.47;;;;;;;12.54;66.57;99991.78;5046891;28;20041;-45
2021/05/12 08:29:12;;;;;;;2.85;0.40;;;;;;;12.57;66.22;99991.03;5048874;28;20486;-48
2021/05/12 08:31:40;;;;;;;1.95;0.60;;;;;;;12.64;65.86;99996.66;5036116;28;20081;-50
2021/05/12 08:34:07;;;;;;;3.30;0.40;;;;;;;12.62;65.23;99999.00;5048381;28;20481;-47
2021/05/12 08:36:34;;;;;;;3.03;0.60;;;;;;;12.63;64.99;99995.03;5046275;28;20045;-47
2021/05/12 08:39:14;;;;;;;2.10;0.40;;;;;;;12.59;64.43;99994.22;5048317;28;20049;-46
2021/05/12 08:41:41;;;;;;;3.13;0.50;;;;;;;12.56;64.25;99989.41;5048156;28;20057;-45
2021/05/12 08:44:13;;;;;;;3.22;0.60;;;;;;;12.56;64.17;99989.41;5051935;28;20581;-50
2021/05/12 08:46:47;;;;;;;1.35;0.40;;;;;;;12.67;64.16;99998.69;5048076;28;20032;-49
2021/05/12 08:49:17;;;;;;;1.20;0.50;;;;;;;12.88;64.23;100000.13;5048024;28;20383;-46
2021/05/12 08:51:45;;;;;;;1.75;0.50;;;;;;;13.04;64.06;100004.28;5050970;28;20410;-46
2021/05/12 08:54:13;;;;;;;2.20;0.65;;;;;;;13.22;63.86;100004.50;5050255;28;20053;-47
2021/05/12 08:56:41;;;;;;;2.70;0.50;;;;;;;13.32;63.54;100012.16;5047756;28;20041;-47
2021/05/12 08:59:10;;;;;;;3.17;0.63;;;;;;;13.38;63.06;100010.63;5049204;28;20041;-48
2021/05/12 09:01:37;;;;;;;1.75;0.47;;;;;;;13.42;62.98;100008.72;5049073;28;20124;-45
2021/05/12 09:04:05;;;;;;;1.52;0.50;;;;;;;13.61;62.88;100005.69;5048971;28;20049;-46
2021/05/12 09:06:36;;;;;;;2.90;0.52;;;;;;;13.72;62.40;100009.38;5048045;28;20076;-50
2021/05/12 09:09:07;;;;;;;1.05;0.40;;;;;;;13.73;61.38;100016.56;5033344;28;20049;-46
2021/05/12 09:11:35;;;;;;;2.45;0.40;;;;;;;13.70;61.21;100013.72;5035020;28;20037;-46
2021/05/12 09:14:02;;;;;;;0.80;0.47;;;;;;;13.62;60.75;100007.31;5051442;28;20052;-45
2021/05/12 09:16:31;;;;;;;1.50;0.43;;;;;;;13.58;60.52;100009.22;5051739;28;20045;-46
2021/05/12 09:19:08;;;;;;;2.50;0.77;;;;;;;13.53;59.96;100009.59;5059564;28;20079;-47
2021/05/12 09:21:51;;;;;;;3.15;0.40;;;;;;;13.54;59.10;100013.97;5051743;28;20041;-46
2021/05/12 09:24:22;;;;;;;1.75;0.47;;;;;;;13.62;59.24;100012.88;5044741;28;20478;-46
2021/05/12 09:26:52;;;;;;;3.03;1.35;;;;;;;13.68;59.53;100008.56;5051792;28;20032;-47
2021/05/12 09:29:45;;;;;;;2.10;0.70;;;;;;;13.81;59.57;100012.66;5050960;28;20051;-47
2021/05/12 09:32:16;;;;;;;2.40;0.40;;;;;;;13.92;59.75;100021.88;5050211;28;20045;-47
2021/05/12 09:34:56;;;;;;;7.47;0.50;;;;;;;13.82;58.68;100017.00;5052040;28;20364;-49
2021/05/12 09:37:22;;;;;;;0.95;0.30;;;;;;;13.76;59.30;100018.56;5050338;28;20100;-44
2021/05/12 09:39:50;;;;;;;0.63;0.10;;;;;;;13.94;59.21;100016.72;5051172;28;20048;-46
2021/05/12 09:42:20;;;;;;;1.67;0.40;;;;;;;14.09;59.09;100019.59;5050913;28;20363;-45
2021/05/12 09:45:11;;;;;;;4.07;0.40;;;;;;;14.27;57.39;100031.69;5051693;28;20548;-44
2021/05/12 09:47:43;;;;;;;1.17;0.43;;;;;;;14.28;58.83;100024.91;5051552;28;20083;-50
2021/05/12 09:50:15;;;;;;;0.93;0.80;;;;;;;14.36;57.81;100023.81;5051248;28;20086;-49
2021/05/12 09:52:43;;;;;;;0.80;0.20;;;;;;;14.43;58.29;100018.28;5052507;28;20060;-48
2021/05/12 09:55:16;;;;;;;0.70;0.30;;;;;;;15.07;57.68;100022.97;5050368;28;20045;-47
2021/05/12 09:58:09;;;;;;;4.70;0.40;;;;;;;15.92;54.58;100014.81;5036994;28;20100;-48
2021/05/12 10:00:38;;;;;;;5.72;1.20;;;;;;;16.32;55.83;100022.75;5051631;28;20584;-50
2021/05/12 10:03:06;;;;;;;2.38;0.30;;;;;;;16.20;55.01;100030.75;5050323;28;20045;-46
2021/05/12 10:05:52;;;;;;;3.92;0.43;;;;;;;15.80;53.77;100027.19;5050206;28;20099;-45
2021/05/12 10:08:24;;;;;;;0.52;0.40;;;;;;;15.34;54.11;100036.59;5043125;28;20045;-48
2021/05/12 10:10:59;;;;;;;2.15;0.40;;;;;;;15.11;54.49;100032.19;5051629;28;20041;-46
2021/05/12 10:13:26;;;;;;;0.43;0.13;;;;;;;14.89;55.01;100036.06;5050490;28;20045;-47
2021/05/12 10:15:53;;;;;;;1.08;0.20;;;;;;;14.71;55.19;100029.59;5050606;28;20087;-45
2021/05/12 10:18:19;;;;;;;3.03;0.38;;;;;;;14.59;55.30;100032.69;5032337;28;20067;-46
2021/05/12 10:20:47;;;;;;;2.47;0.40;;;;;;;14.42;55.36;100030.63;5032081;28;20037;-48
2021/05/12 10:23:14;;;;;;;0.98;0.10;;;;;;;14.29;55.95;100029.31;5051069;28;20159;-47
2021/05/12 10:25:42;;;;;;;0.68;0.30;;;;;;;14.30;56.33;100030.91;5049910;28;20056;-46
2021/05/12 10:28:09;;;;;;;4.85;0.50;;;;;;;14.34;56.27;100031.75;5071644;28;20141;-48
2021/05/12 10:30:36;;;;;;;1.88;1.10;;;;;;;14.22;56.17;100030.03;5051427;28;20045;-46
2021/05/12 10:33:06;;;;;;;0.30;0.20;;;;;;;14.14;56.40;100033.19;5050106;28;20463;-48
2021/05/12 10:35:36;;;;;;;1.25;0.43;;;;;;;14.10;56.63;100037.91;5043814;28;20041;-45
2021/05/12 10:38:04;;;;;;;2.30;0.40;;;;;;;14.07;56.64;100031.13;5031171;28;20087;-49
2021/05/12 10:40:32;;;;;;;1.08;0.28;;;;;;;14.18;56.62;100040.38;5050089;28;20178;-46
2021/05/12 10:45:58;;;;;;;2.85;0.50;;;;;;;14.33;56.21;100038.50;5042913;28;20037;-44
2021/05/12 10:48:32;;;;;;;1.20;0.40;;;;;;;14.46;56.38;100039.78;5049817;28;20090;-47
2021/05/12 10:51:08;;;;;;;2.25;0.40;;;;;;;14.50;56.08;100046.19;5048975;28;20076;-46
2021/05/12 10:53:46;;;;;;;1.60;0.30;;;;;;;14.59;55.63;100038.28;5050190;28;20048;-46
2021/05/12 10:56:14;;;;;;;1.17;0.32;;;;;;;14.56;56.08;100045.41;5048877;28;20041;-47
2021/05/12 10:59:04;;;;;;;4.65;0.50;;;;;;;14.68;55.17;100038.72;5050495;28;20060;-47
2021/05/12 11:01:35;;;;;;;1.35;0.47;;;;;;;14.95;55.62;100042.06;5050959;28;20051;-45
2021/05/12 11:04:06;;;;;;;3.20;1.13;;;;;;;15.13;55.08;100040.94;5030845;28;20075;-44
2021/05/12 11:06:39;;;;;;;4.63;1.73;;;;;;;15.15;55.53;100049.69;5048625;28;20041;-50
2021/05/12 11:09:09;;;;;;;3.33;0.60;;;;;;;15.29;55.59;100048.16;5050079;28;20080;-47
2021/05/12 11:11:39;;;;;;;1.55;0.30;;;;;;;15.34;55.03;100039.41;5050017;28;20099;-44
2021/05/12 11:14:33;;;;;;;3.22;0.40;;;;;;;15.58;54.78;100055.44;5031803;28;20045;-45
2021/05/12 11:17:07;;;;;;;2.53;0.95;;;;;;;15.67;53.71;100042.69;5013313;28;20100;-47
2021/05/12 11:19:49;;;;;;;0.30;0.30;;;;;;;15.69;52.97;100051.47;5016442;28;20046;-46
2021/05/12 11:25:17;;;;;;;3.88;0.73;;;;;;;15.60;54.01;100053.03;5010951;28;20152;-49
2021/05/12 11:33:28;;;;;;;1.10;0.40;;;;;;;15.56;54.26;100055.03;5020827;28;20052;-46
2021/05/12 11:36:00;;;;;;;6.00;1.20;;;;;;;15.59;54.43;100057.03;5009636;28;20054;-47
2021/05/12 11:38:27;;;;;;;4.43;1.17;;;;;;;15.70;54.30;100063.44;5009793;28;20103;-46
2021/05/12 11:41:05;;;;;;;4.32;2.20;;;;;;;15.74;53.18;100058.66;5008762;28;20064;-45
2021/05/12 11:43:32;;;;;;;10.68;4.47;;;;;;;15.66;53.61;100062.63;5010309;28;20100;-45
2021/05/12 11:46:10;;;;;;;6.38;1.45;;;;;;;15.68;53.38;100060.22;5013846;28;20041;-49
2021/05/12 11:48:45;;;;;;;2.08;0.88;;;;;;;15.64;52.24;100060.25;5009521;28;20037;-45
2021/05/12 11:51:16;;;;;;;1.85;0.68;;;;;;;15.72;53.05;100061.06;5009150;28;20041;-46
2021/05/12 11:53:46;;;;;;;0.55;0.30;;;;;;;15.77;52.97;100061.47;5022660;28;20046;-45
2021/05/12 11:56:13;;;;;;;2.75;1.20;;;;;;;15.82;53.01;100061.06;5021404;28;20046;-46
2021/05/12 11:58:53;;;;;;;2.60;1.25;;;;;;;15.77;52.90;100063.44;5013626;28;20399;-53